sensor_id;sensor_type;location;lat;lon;timestamp;pressure;altitude;pressure_sealevel;temperature;humidity
61697;BME280;47610;52.252;20.922;2023-05-23T00:00:22;100244.42;;;15.14;100.00
61697;BME280;47610;52.252;20.922;2023-05-23T00:05:25;100250.95;;;15.12;100.00
61697;BME280;47610;52.252;20.922;2023-05-23T00:10:29;100249.31;;;15.08;100.00
61697;BME280;47610;52.252;20.922;2023-05-23T00:15:32;100250.79;;;15.03;100.00
61697;BME280;47610;52.252;20.922;2023-05-23T00:20:35;100248.60;;;15.02;100.00
61697;BME280;47610;52.252;20.922;2023-05-23T00:25:38;100241.95;;;15.05;100.00
61697;BME280;47610;52.252;20.922;2023-05-23T00:30:42;100240.25;;;15.04;100.00
61697;BME280;47610;52.252;20.922;2023-05-23T00:35:45;100238.80;;;15.01;100.00
61697;BME280;47610;52.252;20.922;2023-05-23T00:40:48;100229.60;;;14.91;100.00
61697;BME280;47610;52.252;20.922;2023-05-23T00:45:52;100233.50;;;14.80;100.00
61697;BME280;47610;52.252;20.922;2023-05-23T00:50:55;100228.14;;;14.72;100.00
61697;BME280;47610;52.252;20.922;2023-05-23T00:55:59;100229.39;;;14.62;100.00
61697;BME280;47610;52.252;20.922;2023-05-23T01:01:02;100228.13;;;14.55;100.00
61697;BME280;47610;52.252;20.922;2023-05-23T01:06:06;100227.75;;;14.47;100.00
61697;BME280;47610;52.252;20.922;2023-05-23T01:11:25;100230.67;;;14.42;100.00
61697;BME280;47610;52.252;20.922;2023-05-23T01:16:35;100231.77;;;14.39;100.00
61697;BME280;47610;52.252;20.922;2023-05-23T01:21:41;100236.74;;;14.40;100.00
61697;BME280;47610;52.252;20.922;2023-05-23T01:27:10;100238.40;;;14.40;100.00
61697;BME280;47610;52.252;20.922;2023-05-23T01:32:21;100231.02;;;14.35;100.00
61697;BME280;47610;52.252;20.922;2023-05-23T01:37:26;100223.83;;;14.28;100.00
61697;BME280;47610;52.252;20.922;2023-05-23T01:42:30;100226.27;;;14.21;100.00
61697;BME280;47610;52.252;20.922;2023-05-23T01:47:34;100221.13;;;14.11;100.00
61697;BME280;47610;52.252;20.922;2023-05-23T01:52:37;100216.58;;;14.03;100.00
61697;BME280;47610;52.252;20.922;2023-05-23T01:57:41;100212.89;;;13.98;100.00
61697;BME280;47610;52.252;20.922;2023-05-23T02:02:46;100210.52;;;13.94;100.00
61697;BME280;47610;52.252;20.922;2023-05-23T02:07:49;100212.73;;;13.90;100.00
61697;BME280;47610;52.252;20.922;2023-05-23T02:12:52;100209.49;;;13.89;100.00
61697;BME280;47610;52.252;20.922;2023-05-23T02:17:55;100198.90;;;13.90;100.00
61697;BME280;47610;52.252;20.922;2023-05-23T02:22:59;100202.29;;;13.86;100.00
61697;BME280;47610;52.252;20.922;2023-05-23T02:28:02;100200.80;;;13.80;100.00
61697;BME280;47610;52.252;20.922;2023-05-23T02:33:06;100193.59;;;13.77;100.00
61697;BME280;47610;52.252;20.922;2023-05-23T02:38:09;100190.34;;;13.76;100.00
61697;BME280;47610;52.252;20.922;2023-05-23T02:43:12;100189.80;;;13.76;100.00
61697;BME280;47610;52.252;20.922;2023-05-23T02:48:16;100188.27;;;13.77;100.00
61697;BME280;47610;52.252;20.922;2023-05-23T02:53:20;100186.61;;;13.81;100.00
61697;BME280;47610;52.252;20.922;2023-05-23T02:58:23;100183.04;;;13.83;100.00
61697;BME280;47610;52.252;20.922;2023-05-23T03:03:26;100184.31;;;13.86;100.00
61697;BME280;47610;52.252;20.922;2023-05-23T03:08:29;100178.86;;;13.94;100.00
61697;BME280;47610;52.252;20.922;2023-05-23T03:13:32;100179.55;;;14.12;100.00
61697;BME280;47610;52.252;20.922;2023-05-23T03:18:36;100178.57;;;14.53;100.00
61697;BME280;47610;52.252;20.922;2023-05-23T03:23:39;100179.92;;;15.38;100.00
61697;BME280;47610;52.252;20.922;2023-05-23T03:28:42;100188.20;;;16.61;100.00
61697;BME280;47610;52.252;20.922;2023-05-23T03:33:45;100186.42;;;17.87;100.00
61697;BME280;47610;52.252;20.922;2023-05-23T03:38:48;100182.30;;;19.07;99.30
61697;BME280;47610;52.252;20.922;2023-05-23T03:43:52;100189.64;;;20.21;90.45
61697;BME280;47610;52.252;20.922;2023-05-23T03:48:55;100192.58;;;21.29;80.85
61697;BME280;47610;52.252;20.922;2023-05-23T03:53:58;100192.91;;;22.46;71.75
61697;BME280;47610;52.252;20.922;2023-05-23T03:59:01;100189.98;;;23.76;64.69
61697;BME280;47610;52.252;20.922;2023-05-23T04:04:05;100192.30;;;25.16;56.87
61697;BME280;47610;52.252;20.922;2023-05-23T04:09:08;100189.25;;;26.43;49.73
61697;BME280;47610;52.252;20.922;2023-05-23T04:14:11;100184.90;;;27.93;44.61
61697;BME280;47610;52.252;20.922;2023-05-23T04:19:14;100184.64;;;29.35;38.87
61697;BME280;47610;52.252;20.922;2023-05-23T04:24:17;100186.90;;;30.71;34.52
61697;BME280;47610;52.252;20.922;2023-05-23T04:29:21;100191.30;;;32.38;31.73
61697;BME280;47610;52.252;20.922;2023-05-23T04:34:24;100193.91;;;33.57;27.48
61697;BME280;47610;52.252;20.922;2023-05-23T04:39:27;100194.75;;;34.40;25.56
61697;BME280;47610;52.252;20.922;2023-05-23T04:44:29;100193.13;;;35.40;24.64
61697;BME280;47610;52.252;20.922;2023-05-23T04:49:32;100194.89;;;36.65;23.21
61697;BME280;47610;52.252;20.922;2023-05-23T04:54:35;100193.86;;;38.00;22.36
61697;BME280;47610;52.252;20.922;2023-05-23T04:59:39;100190.02;;;38.91;20.32
61697;BME280;47610;52.252;20.922;2023-05-23T05:04:42;100192.25;;;39.56;19.73
61697;BME280;47610;52.252;20.922;2023-05-23T05:09:45;100191.63;;;40.33;18.44
61697;BME280;47610;52.252;20.922;2023-05-23T05:14:48;100186.83;;;40.27;17.78
61697;BME280;47610;52.252;20.922;2023-05-23T05:19:52;100172.77;;;37.34;19.08
61697;BME280;47610;52.252;20.922;2023-05-23T05:24:55;100163.44;;;34.06;21.03
61697;BME280;47610;52.252;20.922;2023-05-23T05:29:58;100159.17;;;31.75;22.75
61697;BME280;47610;52.252;20.922;2023-05-23T05:35:01;100153.66;;;29.71;24.71
61697;BME280;47610;52.252;20.922;2023-05-23T05:40:06;100149.66;;;28.52;26.78
61697;BME280;47610;52.252;20.922;2023-05-23T05:45:11;100147.87;;;28.42;27.87
61697;BME280;47610;52.252;20.922;2023-05-23T05:50:14;100149.00;;;27.48;29.14
61697;BME280;47610;52.252;20.922;2023-05-23T05:55:17;100148.27;;;26.47;31.21
61697;BME280;47610;52.252;20.922;2023-05-23T06:00:21;100146.34;;;25.93;32.45
61697;BME280;47610;52.252;20.922;2023-05-23T06:05:25;100143.09;;;25.29;33.24
61697;BME280;47610;52.252;20.922;2023-05-23T06:10:28;100140.83;;;24.73;35.16
61697;BME280;47610;52.252;20.922;2023-05-23T06:15:31;100136.11;;;24.47;35.77
61697;BME280;47610;52.252;20.922;2023-05-23T06:20:34;100131.61;;;24.20;36.05
61697;BME280;47610;52.252;20.922;2023-05-23T06:25:38;100129.29;;;24.22;36.08
61697;BME280;47610;52.252;20.922;2023-05-23T06:30:42;100123.19;;;23.95;36.47
61697;BME280;47610;52.252;20.922;2023-05-23T06:35:45;100121.98;;;23.44;37.39
61697;BME280;47610;52.252;20.922;2023-05-23T06:40:49;100121.02;;;22.94;39.02
61697;BME280;47610;52.252;20.922;2023-05-23T06:45:54;100111.75;;;22.65;40.12
61697;BME280;47610;52.252;20.922;2023-05-23T06:50:57;100102.23;;;22.63;41.94
61697;BME280;47610;52.252;20.922;2023-05-23T06:56:00;100101.96;;;23.32;42.27
61697;BME280;47610;52.252;20.922;2023-05-23T07:01:04;100098.85;;;24.04;42.31
61697;BME280;47610;52.252;20.922;2023-05-23T07:06:10;100097.38;;;24.16;38.48
61697;BME280;47610;52.252;20.922;2023-05-23T07:11:14;100094.39;;;24.73;36.39
61697;BME280;47610;52.252;20.922;2023-05-23T07:16:18;100088.80;;;25.08;36.59
61697;BME280;47610;52.252;20.922;2023-05-23T07:21:22;100084.41;;;24.87;36.11
61697;BME280;47610;52.252;20.922;2023-05-23T07:26:26;100079.89;;;24.80;36.51
61697;BME280;47610;52.252;20.922;2023-05-23T07:31:30;100078.18;;;24.59;37.72
61697;BME280;47610;52.252;20.922;2023-05-23T07:36:34;100076.73;;;24.58;36.32
61697;BME280;47610;52.252;20.922;2023-05-23T07:41:37;100071.68;;;24.26;35.94
61697;BME280;47610;52.252;20.922;2023-05-23T07:46:41;100062.88;;;24.00;36.22
61697;BME280;47610;52.252;20.922;2023-05-23T07:51:44;100057.39;;;24.17;39.16
61697;BME280;47610;52.252;20.922;2023-05-23T07:56:47;100057.92;;;25.03;36.39
61697;BME280;47610;52.252;20.922;2023-05-23T08:01:51;100062.08;;;25.28;34.43
61697;BME280;47610;52.252;20.922;2023-05-23T08:06:56;100056.30;;;25.51;32.38
61697;BME280;47610;52.252;20.922;2023-05-23T08:12:00;100054.66;;;25.23;33.49
61697;BME280;47610;52.252;20.922;2023-05-23T08:17:04;100051.30;;;25.19;34.26
61697;BME280;47610;52.252;20.922;2023-05-23T08:22:08;100047.52;;;25.87;34.74
61697;BME280;47610;52.252;20.922;2023-05-23T08:27:15;100046.86;;;26.31;34.28
61697;BME280;47610;52.252;20.922;2023-05-23T08:32:18;100043.08;;;27.54;30.65
61697;BME280;47610;52.252;20.922;2023-05-23T08:37:21;100039.04;;;28.99;27.91
61697;BME280;47610;52.252;20.922;2023-05-23T08:42:25;100034.71;;;31.34;25.28
61697;BME280;47610;52.252;20.922;2023-05-23T08:47:31;100040.39;;;33.30;22.85
61697;BME280;47610;52.252;20.922;2023-05-23T08:52:46;100045.08;;;35.07;20.80
61697;BME280;47610;52.252;20.922;2023-05-23T08:57:51;100035.37;;;35.98;19.61
61697;BME280;47610;52.252;20.922;2023-05-23T09:02:54;100033.02;;;36.25;19.52
61697;BME280;47610;52.252;20.922;2023-05-23T09:07:59;100023.56;;;36.38;19.09
61697;BME280;47610;52.252;20.922;2023-05-23T09:13:04;100023.66;;;36.25;19.02
61697;BME280;47610;52.252;20.922;2023-05-23T09:18:08;100026.92;;;36.08;19.14
61697;BME280;47610;52.252;20.922;2023-05-23T09:23:13;100016.34;;;34.78;19.32
61697;BME280;47610;52.252;20.922;2023-05-23T09:28:17;100013.45;;;34.02;19.76
61697;BME280;47610;52.252;20.922;2023-05-23T09:33:21;100010.77;;;33.02;20.52
61697;BME280;47610;52.252;20.922;2023-05-23T09:38:24;100003.34;;;31.90;21.59
61697;BME280;47610;52.252;20.922;2023-05-23T09:43:30;100005.56;;;32.33;21.14
61697;BME280;47610;52.252;20.922;2023-05-23T09:48:33;100001.81;;;31.95;20.53
61697;BME280;47610;52.252;20.922;2023-05-23T09:53:38;99992.31;;;32.03;21.02
61697;BME280;47610;52.252;20.922;2023-05-23T09:58:45;99987.42;;;31.37;21.53
61697;BME280;47610;52.252;20.922;2023-05-23T10:03:51;99997.73;;;29.97;22.45
61697;BME280;47610;52.252;20.922;2023-05-23T10:09:00;99993.89;;;29.01;22.77
61697;BME280;47610;52.252;20.922;2023-05-23T10:14:08;99987.26;;;28.20;23.81
61697;BME280;47610;52.252;20.922;2023-05-23T10:19:19;99984.30;;;27.41;24.99
61697;BME280;47610;52.252;20.922;2023-05-23T10:24:27;99982.27;;;27.12;25.92
61697;BME280;47610;52.252;20.922;2023-05-23T10:29:31;99980.48;;;27.06;25.90
61697;BME280;47610;52.252;20.922;2023-05-23T10:34:40;99970.88;;;26.88;26.04
61697;BME280;47610;52.252;20.922;2023-05-23T10:39:56;99972.70;;;26.64;26.31
61697;BME280;47610;52.252;20.922;2023-05-23T10:45:16;99970.02;;;26.26;27.17
61697;BME280;47610;52.252;20.922;2023-05-23T10:50:32;99971.68;;;26.22;27.67
61697;BME280;47610;52.252;20.922;2023-05-23T10:55:37;99961.66;;;26.32;27.76
61697;BME280;47610;52.252;20.922;2023-05-23T11:00:51;99956.02;;;26.43;27.76
61697;BME280;47610;52.252;20.922;2023-05-23T11:05:55;99954.69;;;26.25;27.42
61697;BME280;47610;52.252;20.922;2023-05-23T11:11:00;99964.86;;;25.97;27.04
61697;BME280;47610;52.252;20.922;2023-05-23T11:16:24;99966.46;;;25.71;28.41
61697;BME280;47610;52.252;20.922;2023-05-23T11:21:29;99955.97;;;25.67;28.42
61697;BME280;47610;52.252;20.922;2023-05-23T11:26:35;99950.85;;;25.71;29.67
61697;BME280;47610;52.252;20.922;2023-05-23T11:31:39;99950.23;;;25.64;29.20
61697;BME280;47610;52.252;20.922;2023-05-23T11:36:42;99941.02;;;25.62;29.31
61697;BME280;47610;52.252;20.922;2023-05-23T11:41:49;99940.14;;;25.72;29.29
61697;BME280;47610;52.252;20.922;2023-05-23T11:47:04;99942.66;;;25.73;29.19
61697;BME280;47610;52.252;20.922;2023-05-23T11:52:07;99934.72;;;25.60;29.19
61697;BME280;47610;52.252;20.922;2023-05-23T11:57:11;99927.94;;;25.57;29.21
61697;BME280;47610;52.252;20.922;2023-05-23T12:02:15;99925.80;;;25.35;28.83
61697;BME280;47610;52.252;20.922;2023-05-23T12:07:20;99924.90;;;25.19;30.03
61697;BME280;47610;52.252;20.922;2023-05-23T12:12:25;99917.98;;;25.20;29.55
61697;BME280;47610;52.252;20.922;2023-05-23T12:17:28;99921.50;;;25.18;29.94
61697;BME280;47610;52.252;20.922;2023-05-23T12:22:31;99919.30;;;25.10;30.07
61697;BME280;47610;52.252;20.922;2023-05-23T12:27:38;99913.23;;;24.99;30.17
61697;BME280;47610;52.252;20.922;2023-05-23T12:32:43;99912.50;;;25.00;30.34
61697;BME280;47610;52.252;20.922;2023-05-23T12:37:50;99913.28;;;24.97;30.00
61697;BME280;47610;52.252;20.922;2023-05-23T12:42:55;99912.06;;;24.90;30.52
61697;BME280;47610;52.252;20.922;2023-05-23T12:47:58;99908.08;;;24.85;30.52
61697;BME280;47610;52.252;20.922;2023-05-23T12:53:03;99897.73;;;24.81;30.29
61697;BME280;47610;52.252;20.922;2023-05-23T12:58:06;99896.54;;;24.81;30.85
61697;BME280;47610;52.252;20.922;2023-05-23T13:03:09;99889.86;;;24.88;31.36
61697;BME280;47610;52.252;20.922;2023-05-23T13:08:14;99891.52;;;25.01;31.77
61697;BME280;47610;52.252;20.922;2023-05-23T13:13:19;99891.34;;;25.13;30.77
61697;BME280;47610;52.252;20.922;2023-05-23T13:18:24;99878.09;;;25.08;30.21
61697;BME280;47610;52.252;20.922;2023-05-23T13:23:27;99878.75;;;24.95;30.71
61697;BME280;47610;52.252;20.922;2023-05-23T13:28:30;99876.80;;;24.80;30.79
61697;BME280;47610;52.252;20.922;2023-05-23T13:33:34;99874.13;;;24.71;31.15
61697;BME280;47610;52.252;20.922;2023-05-23T13:38:37;99873.52;;;24.61;31.59
61697;BME280;47610;52.252;20.922;2023-05-23T13:43:40;99873.53;;;24.55;31.87
61697;BME280;47610;52.252;20.922;2023-05-23T13:48:44;99875.16;;;24.45;31.41
61697;BME280;47610;52.252;20.922;2023-05-23T13:53:47;99872.25;;;24.39;31.06
61697;BME280;47610;52.252;20.922;2023-05-23T13:58:52;99863.40;;;24.43;31.26
61697;BME280;47610;52.252;20.922;2023-05-23T14:03:56;99856.60;;;24.63;30.99
61697;BME280;47610;52.252;20.922;2023-05-23T14:08:59;99858.23;;;24.67;30.90
61697;BME280;47610;52.252;20.922;2023-05-23T14:14:04;99858.75;;;24.56;31.23
61697;BME280;47610;52.252;20.922;2023-05-23T14:19:07;99854.85;;;24.41;31.38
61697;BME280;47610;52.252;20.922;2023-05-23T14:24:12;99851.79;;;24.29;31.71
61697;BME280;47610;52.252;20.922;2023-05-23T14:29:16;99844.17;;;24.23;32.08
61697;BME280;47610;52.252;20.922;2023-05-23T14:34:19;99840.15;;;24.24;32.84
61697;BME280;47610;52.252;20.922;2023-05-23T14:39:23;99839.01;;;24.28;32.86
61697;BME280;47610;52.252;20.922;2023-05-23T14:44:27;99840.09;;;24.32;32.36
61697;BME280;47610;52.252;20.922;2023-05-23T14:49:30;99835.11;;;24.25;32.28
61697;BME280;47610;52.252;20.922;2023-05-23T14:54:34;99828.47;;;24.28;32.67
61697;BME280;47610;52.252;20.922;2023-05-23T14:59:38;99827.50;;;24.27;33.08
61697;BME280;47610;52.252;20.922;2023-05-23T15:04:42;99829.48;;;24.31;32.98
61697;BME280;47610;52.252;20.922;2023-05-23T15:09:47;99827.65;;;24.33;32.71
61697;BME280;47610;52.252;20.922;2023-05-23T15:14:51;99819.77;;;24.32;32.30
61697;BME280;47610;52.252;20.922;2023-05-23T15:19:54;99815.18;;;24.38;32.41
61697;BME280;47610;52.252;20.922;2023-05-23T15:24:58;99816.81;;;24.40;32.64
61697;BME280;47610;52.252;20.922;2023-05-23T15:30:05;99811.05;;;24.53;32.46
61697;BME280;47610;52.252;20.922;2023-05-23T15:35:10;99810.16;;;24.60;31.68
61697;BME280;47610;52.252;20.922;2023-05-23T15:40:14;99813.54;;;24.61;30.75
61697;BME280;47610;52.252;20.922;2023-05-23T15:45:22;99811.11;;;24.57;30.48
61697;BME280;47610;52.252;20.922;2023-05-23T15:50:25;99811.94;;;24.54;31.06
61697;BME280;47610;52.252;20.922;2023-05-23T15:55:28;99800.83;;;24.58;31.27
61697;BME280;47610;52.252;20.922;2023-05-23T16:00:33;99800.73;;;24.65;31.50
61697;BME280;47610;52.252;20.922;2023-05-23T16:05:37;99805.48;;;24.72;31.25
61697;BME280;47610;52.252;20.922;2023-05-23T16:10:45;99796.79;;;24.56;31.32
61697;BME280;47610;52.252;20.922;2023-05-23T16:15:48;99793.80;;;24.48;31.30
61697;BME280;47610;52.252;20.922;2023-05-23T16:20:53;99790.46;;;24.35;31.47
61697;BME280;47610;52.252;20.922;2023-05-23T16:25:56;99789.77;;;24.29;31.62
61697;BME280;47610;52.252;20.922;2023-05-23T16:31:01;99786.77;;;24.16;31.70
61697;BME280;47610;52.252;20.922;2023-05-23T16:36:06;99785.02;;;24.04;32.11
61697;BME280;47610;52.252;20.922;2023-05-23T16:41:09;99788.30;;;23.96;32.31
61697;BME280;47610;52.252;20.922;2023-05-23T16:46:13;99789.69;;;23.86;32.04
61697;BME280;47610;52.252;20.922;2023-05-23T16:51:18;99790.35;;;23.77;31.90
61697;BME280;47610;52.252;20.922;2023-05-23T16:56:21;99788.93;;;23.73;31.64
61697;BME280;47610;52.252;20.922;2023-05-23T17:01:29;99789.98;;;23.70;31.83
61697;BME280;47610;52.252;20.922;2023-05-23T17:06:32;99797.74;;;23.62;32.17
61697;BME280;47610;52.252;20.922;2023-05-23T17:11:36;99799.06;;;23.55;32.68
61697;BME280;47610;52.252;20.922;2023-05-23T17:16:41;99795.04;;;23.44;33.04
61697;BME280;47610;52.252;20.922;2023-05-23T17:21:47;99793.84;;;23.40;33.48
61697;BME280;47610;52.252;20.922;2023-05-23T17:26:52;99793.05;;;23.30;34.09
61697;BME280;47610;52.252;20.922;2023-05-23T17:31:56;99795.94;;;23.30;34.52
61697;BME280;47610;52.252;20.922;2023-05-23T17:37:00;99798.88;;;23.34;34.83
61697;BME280;47610;52.252;20.922;2023-05-23T17:42:05;99799.27;;;23.34;35.20
61697;BME280;47610;52.252;20.922;2023-05-23T17:47:09;99802.00;;;23.33;35.32
61697;BME280;47610;52.252;20.922;2023-05-23T17:52:12;99802.77;;;23.31;35.91
61697;BME280;47610;52.252;20.922;2023-05-23T17:57:17;99804.52;;;23.30;36.08
61697;BME280;47610;52.252;20.922;2023-05-23T18:02:20;99807.27;;;23.32;36.41
61697;BME280;47610;52.252;20.922;2023-05-23T18:07:24;99804.52;;;23.25;37.38
61697;BME280;47610;52.252;20.922;2023-05-23T18:12:29;99802.20;;;23.15;38.29
61697;BME280;47610;52.252;20.922;2023-05-23T18:17:34;99797.11;;;23.04;38.79
61697;BME280;47610;52.252;20.922;2023-05-23T18:22:37;99798.73;;;22.90;39.86
61697;BME280;47610;52.252;20.922;2023-05-23T18:27:41;99804.85;;;22.78;40.21
61697;BME280;47610;52.252;20.922;2023-05-23T18:32:44;99810.29;;;22.73;40.92
61697;BME280;47610;52.252;20.922;2023-05-23T18:37:49;99817.72;;;22.67;41.25
61697;BME280;47610;52.252;20.922;2023-05-23T18:42:52;99826.75;;;22.62;41.56
61697;BME280;47610;52.252;20.922;2023-05-23T18:47:55;99834.05;;;22.54;42.39
61697;BME280;47610;52.252;20.922;2023-05-23T18:53:01;99835.73;;;22.46;42.80
61697;BME280;47610;52.252;20.922;2023-05-23T18:58:06;99840.52;;;22.41;42.66
61697;BME280;47610;52.252;20.922;2023-05-23T19:03:09;99840.15;;;22.31;43.24
61697;BME280;47610;52.252;20.922;2023-05-23T19:08:12;99843.13;;;22.21;43.87
61697;BME280;47610;52.252;20.922;2023-05-23T19:13:18;99844.17;;;22.07;44.66
61697;BME280;47610;52.252;20.922;2023-05-23T19:18:23;99837.66;;;21.92;45.92
61697;BME280;47610;52.252;20.922;2023-05-23T19:23:28;99843.66;;;21.78;46.82
61697;BME280;47610;52.252;20.922;2023-05-23T19:28:33;99846.26;;;21.65;48.08
61697;BME280;47610;52.252;20.922;2023-05-23T19:33:37;99850.41;;;21.52;49.28
61697;BME280;47610;52.252;20.922;2023-05-23T19:38:41;99854.75;;;21.40;50.60
61697;BME280;47610;52.252;20.922;2023-05-23T19:43:44;99856.71;;;21.30;51.79
61697;BME280;47610;52.252;20.922;2023-05-23T19:48:49;99855.35;;;21.21;52.81
61697;BME280;47610;52.252;20.922;2023-05-23T19:53:53;99856.53;;;21.11;53.64
61697;BME280;47610;52.252;20.922;2023-05-23T19:58:56;99856.61;;;20.99;54.60
61697;BME280;47610;52.252;20.922;2023-05-23T20:03:59;99860.60;;;20.90;55.65
61697;BME280;47610;52.252;20.922;2023-05-23T20:09:05;99864.92;;;20.81;56.55
61697;BME280;47610;52.252;20.922;2023-05-23T20:14:08;99863.94;;;20.75;57.25
61697;BME280;47610;52.252;20.922;2023-05-23T20:19:10;99864.16;;;20.69;58.24
61697;BME280;47610;52.252;20.922;2023-05-23T20:24:14;99864.98;;;20.60;59.21
61697;BME280;47610;52.252;20.922;2023-05-23T20:29:17;99876.20;;;20.54;60.08
61697;BME280;47610;52.252;20.922;2023-05-23T20:34:21;99880.46;;;20.48;61.10
61697;BME280;47610;52.252;20.922;2023-05-23T20:39:24;99882.80;;;20.40;62.11
61697;BME280;47610;52.252;20.922;2023-05-23T20:44:28;99884.60;;;20.36;63.25
61697;BME280;47610;52.252;20.922;2023-05-23T20:49:33;99879.00;;;20.30;64.18
61697;BME280;47610;52.252;20.922;2023-05-23T20:54:37;99880.33;;;20.24;65.41
61697;BME280;47610;52.252;20.922;2023-05-23T20:59:40;99880.40;;;20.19;65.92
61697;BME280;47610;52.252;20.922;2023-05-23T21:04:45;99880.14;;;20.12;66.08
61697;BME280;47610;52.252;20.922;2023-05-23T21:09:49;99880.85;;;20.07;66.23
61697;BME280;47610;52.252;20.922;2023-05-23T21:14:53;99878.83;;;20.01;66.57
61697;BME280;47610;52.252;20.922;2023-05-23T21:19:57;99878.31;;;19.94;66.87
61697;BME280;47610;52.252;20.922;2023-05-23T21:25:00;99873.91;;;19.89;67.13
61697;BME280;47610;52.252;20.922;2023-05-23T21:30:05;99878.21;;;19.84;67.08
61697;BME280;47610;52.252;20.922;2023-05-23T21:35:10;99877.44;;;19.80;67.62
61697;BME280;47610;52.252;20.922;2023-05-23T21:40:13;99875.66;;;19.74;67.80
61697;BME280;47610;52.252;20.922;2023-05-23T21:45:17;99877.72;;;19.71;68.25
61697;BME280;47610;52.252;20.922;2023-05-23T21:50:20;99881.50;;;19.67;68.38
61697;BME280;47610;52.252;20.922;2023-05-23T21:55:24;99879.15;;;19.64;68.69
61697;BME280;47610;52.252;20.922;2023-05-23T22:00:27;99881.89;;;19.60;69.22
61697;BME280;47610;52.252;20.922;2023-05-23T22:05:30;99884.13;;;19.58;69.54
61697;BME280;47610;52.252;20.922;2023-05-23T22:10:34;99884.77;;;19.53;70.00
61697;BME280;47610;52.252;20.922;2023-05-23T22:15:37;99881.91;;;19.47;70.53
61697;BME280;47610;52.252;20.922;2023-05-23T22:20:41;99878.14;;;19.41;71.01
61697;BME280;47610;52.252;20.922;2023-05-23T22:25:46;99877.16;;;19.38;71.49
61697;BME280;47610;52.252;20.922;2023-05-23T22:30:50;99882.09;;;19.35;72.01
61697;BME280;47610;52.252;20.922;2023-05-23T22:35:53;99879.15;;;19.30;72.67
61697;BME280;47610;52.252;20.922;2023-05-23T22:40:56;99879.73;;;19.26;73.58
61697;BME280;47610;52.252;20.922;2023-05-23T22:45:59;99881.14;;;19.21;74.12
61697;BME280;47610;52.252;20.922;2023-05-23T22:51:05;99885.77;;;19.17;74.65
61697;BME280;47610;52.252;20.922;2023-05-23T22:56:10;99884.62;;;19.11;75.05
61697;BME280;47610;52.252;20.922;2023-05-23T23:01:14;99882.54;;;19.06;75.54
61697;BME280;47610;52.252;20.922;2023-05-23T23:06:17;99880.09;;;19.03;75.67
61697;BME280;47610;52.252;20.922;2023-05-23T23:11:21;99880.02;;;19.01;75.97
61697;BME280;47610;52.252;20.922;2023-05-23T23:16:26;99876.95;;;18.98;76.08
61697;BME280;47610;52.252;20.922;2023-05-23T23:21:29;99873.08;;;18.96;75.95
61697;BME280;47610;52.252;20.922;2023-05-23T23:26:32;99872.80;;;18.95;76.06
61697;BME280;47610;52.252;20.922;2023-05-23T23:31:35;99866.89;;;18.92;76.14
61697;BME280;47610;52.252;20.922;2023-05-23T23:36:38;99867.64;;;18.91;76.46
61697;BME280;47610;52.252;20.922;2023-05-23T23:41:42;99860.39;;;18.88;76.43
61697;BME280;47610;52.252;20.922;2023-05-23T23:46:49;99861.55;;;18.87;76.26
61697;BME280;47610;52.252;20.922;2023-05-23T23:51:52;99860.20;;;18.85;76.37
61697;BME280;47610;52.252;20.922;2023-05-23T23:56:58;99857.91;;;18.81;76.71
